EST,Max TemperatureF,Mean TemperatureF,Min TemperatureF,Max Dew PointF,MeanDew PointF,Min DewpointF,Max Humidity, Mean Humidity, Min Humidity, Max Sea Level PressureIn, Mean Sea Level PressureIn, Min Sea Level PressureIn, Max VisibilityMiles, Mean VisibilityMiles, Min VisibilityMiles, Max Wind SpeedMPH, Mean Wind SpeedMPH, Max Gust SpeedMPH,PrecipitationIn, CloudCover, Events, WindDirDegrees
2012-1-1,51,40,30,46,33,18,91,73,45,30.09,29.89,29.71,10,10,3,34,17,47,0.13,7,Rain-Snow,242
2012-1-2,32,26,20,23,19,14,93,77,58,30.24,30.09,30.02,10,5,0,24,17,30,0.05,8,Fog-Snow,275
2012-1-3,24,20,17,16,14,9,86,75,56,30.39,30.33,30.25,10,8,2,18,11,29,0.00,6,Snow,284
2012-1-4,37,28,18,26,17,9,79,63,53,30.27,30.09,29.96,10,10,10,16,9,,0.00,6,,210
2012-1-5,48,35,22,28,25,20,91,67,36,30.12,30.01,29.90,10,10,10,14,8,,0.00,2,,215
2012-1-6,59,48,38,34,31,29,69,55,39,29.89,29.84,29.78,10,10,10,18,11,23,0.00,1,,206
2012-1-7,49,42,33,34,30,27,86,66,43,30.21,29.99,29.78,10,10,10,12,8,,0.00,3,,273
2012-1-8,43,34,25,28,25,22,95,69,44,30.38,30.31,30.22,10,10,10,7,2,,0.00,5,,57
2012-1-9,47,36,25,26,23,21,89,60,38,30.29,30.15,30.02,10,10,10,10,3,,0.00,4,,222
2012-1-10,50,40,29,32,27,22,90,67,48,30.12,30.03,29.93,10,10,10,9,4,,0.00,0,,220
2012-1-11,46,36,27,46,39,25,100,93,70,29.90,29.57,29.42,10,6,1,12,5,,0.33,8,Rain,88
2012-1-12,46,32,16,46,34,10,100,92,73,29.66,29.47,29.38,10,4,0,24,12,37,0.19,8,Fog-Rain-Snow,242
2012-1-13,19,17,15,14,11,8,86,77,70,30.11,29.91,29.65,10,5,1,30,23,39,0.00,8,Snow,243
2012-1-14,25,20,15,14,12,10,86,74,58,30.27,30.16,30.12,10,10,10,12,7,,0.00,7,Snow,252
2012-1-15,29,18,8,19,12,5,87,73,49,30.52,30.42,30.28,10,10,6,10,2,,0.00,0,,150
2012-1-16,46,34,23,46,37,19,100,86,57,30.29,30.03,29.91,10,8,4,22,12,29,0.02,7,Rain,187
2012-1-17,55,43,30,52,42,23,100,88,73,30.12,29.81,29.59,10,8,2,32,15,51,0.76,8,Rain-Snow-Thunderstorm,235
2012-1-18,30,25,20,23,18,14,79,70,57,30.32,30.20,30.10,10,10,10,17,11,29,0.00,6,Snow,290
2012-1-19,32,23,12,28,21,6,93,80,69,30.19,30.01,29.91,10,6,0,18,12,28,0.00,7,Snow,252
2012-1-20,23,14,6,21,10,-105,93,75,4,30.29,30.10,29.96,10,9,5,14,7,,0.02,7,Rain-Snow,55
2012-1-21,25,23,21,21,20,18,93,88,79,30.28,30.11,29.94,10,9,5,15,10,,0.10,8,Rain-Snow,24
2012-1-22,45,34,24,42,32,21,100,95,83,30.25,30.06,29.83,10,5,0,15,9,,0.02,8,Fog-Rain-Snow,118
2012-1-23,57,47,37,50,44,29,100,85,71,29.99,29.73,29.56,10,9,2,32,17,40,0.55,7,Rain-Thunderstorm,196
2012-1-24,36,31,24,30,27,21,89,78,75,30.38,30.20,29.99,10,9,5,17,11,22,0.00,7,,259
2012-1-25,33,28,22,32,26,21,100,88,78,30.39,30.30,30.14,10,9,5,12,3,,0.10,6,Rain-Snow,95
2012-1-26,44,38,32,45,40,32,100,99,93,30.14,29.76,29.51,10,3,0,15,4,,1.95,8,Fog-Rain,101
2012-1-27,39,34,29,37,31,27,100,88,70,30.08,29.82,29.51,10,7,1,15,10,,0.14,7,Rain-Snow,251
2012-1-28,38,32,26,34,26,13,95,75,37,30.26,30.04,29.93,10,8,2,26,10,37,0.03,5,Rain-Snow,227
2012-1-29,42,34,24,28,21,17,87,64,42,30.31,30.16,30.01,10,9,1,28,15,43,0.00,3,Snow,247
2012-1-30,54,36,18,30,24,16,88,58,38,30.33,30.19,30.06,10,10,10,23,8,26,0.00,4,,185
2012-1-31,59,52,45,46,37,26,93,60,35,30.13,30.05,29.99,10,10,7,31,17,40,0.06,6,Rain,212